Date,TemperatureHighF,TemperatureAvgF,TemperatureLowF,DewpointHighF,DewpointAvgF,DewpointLowF,HumidityHigh,HumidityAvg,HumidityLow,PressureMaxIn,PressureMinIn,WindSpeedMaxMPH,WindSpeedAvgMPH,GustSpeedMaxMPH,PrecipitationSumIn
2013-8-1,65.0,57.4,51.9,59.4,55.1,51.1,99,92,79,29.58,29.54,5,0,6,0.01
2013-8-2,59.9,57.0,54.8,58.8,56.0,53.6,98,96,93,29.65,29.57,4,0,4,0.47
2013-8-3,71.9,61.5,53.4,62.6,57.5,52.3,98,88,66,29.66,29.59,8,0,8,0.00
2013-8-4,76.8,62.1,52.5,64.1,57.2,52.0,99,85,61,29.60,29.49,6,1,6,0.00
2013-8-5,79.0,61.1,51.8,64.1,55.5,50.1,99,83,56,29.55,29.47,5,1,6,0.00
2013-8-6,52.2,50.5,49.9,50.2,49.4,48.6,98,96,93,29.51,29.49,2,0,2,0.00
2013-8-7,77.9,61.3,49.8,61.0,54.9,49.3,99,82,52,29.54,29.48,3,1,7,0.00
2013-8-8,74.8,61.3,53.4,62.5,56.5,52.6,99,85,63,29.56,29.48,3,1,8,0.00
2013-8-9,78.5,62.1,52.4,61.9,56.1,51.8,99,83,53,29.49,29.37,2,1,6,0.00
2013-8-10,75.2,62.3,54.5,64.4,57.9,53.1,99,86,63,29.56,29.40,8,1,8,0.05
2013-8-11,72.0,59.2,53.2,61.3,55.3,52.1,98,88,65,29.59,29.52,7,0,7,0.00
2013-8-12,74.2,60.0,51.9,61.5,55.5,51.1,98,86,61,29.60,29.54,7,0,7,0.00
2013-8-13,76.4,61.6,51.6,61.6,55.5,50.8,99,82,56,29.63,29.46,7,0,7,0.00
2013-8-14,77.8,62.0,53.0,63.9,58.0,50.7,99,88,56,29.48,29.42,5,0,5,0.22
2013-8-15,64.8,61.9,58.4,63.8,61.1,57.6,99,98,94,29.52,29.44,7,0,7,0.02
2013-8-16,80.3,65.7,57.2,67.0,60.7,54.4,99,86,42,29.53,29.49,7,0,7,0.00
2013-8-17,73.9,63.0,55.5,63.3,58.0,53.8,95,84,66,29.60,29.52,5,1,7,0.00
2013-8-18,72.7,63.0,56.3,61.3,56.9,54.1,95,81,63,29.65,29.59,10,1,10,0.00
2013-8-19,75.7,62.5,55.9,61.0,56.0,52.2,96,81,55,29.64,29.59,8,1,8,0.00
2013-8-20,72.8,59.9,50.9,59.8,54.1,49.3,97,83,58,29.70,29.61,7,1,7,0.00
2013-8-21,76.2,61.3,48.7,60.2,53.3,47.4,98,77,50,29.62,29.47,8,1,8,0.00
2013-8-22,80.8,66.0,53.7,61.2,55.4,49.1,93,70,47,29.49,29.33,6,0,6,0.00
2013-8-23,71.3,61.2,54.8,60.6,57.1,53.7,98,87,67,29.41,29.36,8,0,8,0.01
2013-8-24,72.5,60.7,55.6,62.7,56.9,52.8,98,88,58,29.45,29.40,5,0,5,0.06
2013-8-25,74.2,60.2,50.8,59.4,53.9,50.0,98,81,54,29.47,29.39,7,0,7,0.00
2013-8-26,75.1,62.8,55.1,62.0,56.2,50.4,98,81,55,29.41,29.36,13,1,13,0.00
2013-8-27,76.6,64.6,56.4,62.8,58.7,55.0,97,82,56,29.46,29.34,11,1,11,0.05
2013-8-28,76.5,65.0,56.8,67.7,60.9,56.0,99,87,63,29.41,29.34,5,0,5,0.06
2013-8-29,71.1,64.8,59.6,67.3,62.9,58.2,99,94,81,29.50,29.37,17,1,17,0.35
2013-8-30,75.3,62.9,55.1,62.5,58.6,54.0,98,87,57,29.67,29.50,9,1,11,0.00
2013-8-31,73.9,62.2,52.0,62.0,57.1,51.5,99,85,63,29.62,29.37,4,0,7,0.00